Time;durP1;ratioP1;P1;durP2;ratioP2;P2;SDS_P1;SDS_P2;PMS_P1;PMS_P2;Temp;Humidity;BMP_temperature;BMP_pressure;BME280_temperature;BME280_humidity;BME280_pressure;Samples;Min_cycle;Max_cycle;Signal;HPM_P1;HPM_P2
2021/04/03 00:00:00;;;;;;;9.17;8.27;;;8.10;99.90;;;;;;5047214;28;20268;-75
2021/04/03 00:02:27;;;;;;;8.57;7.77;;;8.00;99.90;;;;;;5049039;28;20570;-75
2021/04/03 00:04:52;;;;;;;9.27;8.37;;;8.00;99.90;;;;;;5051762;28;20232;-75
2021/04/03 00:07:18;;;;;;;9.47;8.57;;;7.90;99.90;;;;;;5043440;28;20184;-77
2021/04/03 00:09:45;;;;;;;8.93;8.07;;;7.80;99.90;;;;;;5048581;28;20198;-76
2021/04/03 00:12:11;;;;;;;9.40;8.40;;;7.80;99.90;;;;;;5053803;28;20182;-77
2021/04/03 00:14:37;;;;;;;10.20;8.70;;;7.70;99.90;;;;;;5053353;28;20185;-76
2021/04/03 00:17:03;;;;;;;9.27;8.40;;;7.70;99.90;;;;;;5052407;28;20651;-77
2021/04/03 00:19:29;;;;;;;8.53;7.73;;;7.80;99.90;;;;;;5053733;28;20665;-77
2021/04/03 00:21:55;;;;;;;8.73;7.93;;;7.80;99.90;;;;;;5053453;28;20275;-76
2021/04/03 00:24:21;;;;;;;9.43;8.53;;;7.80;99.90;;;;;;5053414;28;20212;-76
2021/04/03 00:26:46;;;;;;;9.70;8.33;;;7.80;99.90;;;;;;5053304;28;20214;-76
2021/04/03 00:29:12;;;;;;;9.20;8.30;;;7.70;99.90;;;;;;5052765;28;20295;-76
2021/04/03 00:31:38;;;;;;;9.60;8.40;;;7.80;99.90;;;;;;5052053;28;20197;-76
2021/04/03 00:34:03;;;;;;;8.93;8.13;;;7.70;99.90;;;;;;5053291;28;20678;-76
2021/04/03 00:36:29;;;;;;;9.13;8.23;;;7.60;99.90;;;;;;5053388;28;20209;-76
2021/04/03 00:38:55;;;;;;;9.17;8.27;;;7.70;99.90;;;;;;5053146;28;20248;-76
2021/04/03 00:41:21;;;;;;;9.30;8.23;;;7.70;99.90;;;;;;5053572;28;20182;-76
2021/04/03 00:43:47;;;;;;;9.00;8.03;;;7.50;99.90;;;;;;5053163;28;20193;-76
2021/04/03 00:46:12;;;;;;;9.80;8.77;;;7.60;99.90;;;;;;5052935;28;20193;-76
2021/04/03 00:48:38;;;;;;;9.70;8.70;;;7.70;99.90;;;;;;5051619;28;20288;-76
2021/04/03 00:51:04;;;;;;;11.30;8.90;;;7.70;99.90;;;;;;5053088;28;20204;-76
2021/04/03 00:53:31;;;;;;;9.70;8.67;;;7.60;99.90;;;;;;5045986;28;20175;-76
2021/04/03 00:55:56;;;;;;;10.33;8.83;;;7.60;99.90;;;;;;5051695;28;20671;-76
2021/04/03 00:58:23;;;;;;;10.57;9.50;;;7.60;99.90;;;;;;5052926;28;20209;-76
2021/04/03 01:00:50;;;;;;;14.53;9.60;;;7.70;99.90;;;;;;5052792;28;20193;-76
2021/04/03 01:03:17;;;;;;;10.90;9.80;;;7.70;99.90;;;;;;5052880;28;20174;-76
2021/04/03 01:05:43;;;;;;;10.77;9.37;;;7.70;99.90;;;;;;5052983;28;20177;-76
2021/04/03 01:08:11;;;;;;;11.57;9.17;;;7.60;99.90;;;;;;5052838;28;20197;-76
2021/04/03 01:10:40;;;;;;;12.00;9.77;;;7.50;99.90;;;;;;5051586;28;20189;-76
2021/04/03 01:13:31;;;;;;;12.13;9.90;;;7.50;99.90;;;;;;5052802;28;20643;-76
2021/04/03 01:16:09;;;;;;;12.20;10.13;;;7.40;99.90;;;;;;5053274;28;20173;-76
2021/04/03 01:19:01;;;;;;;11.00;9.80;;;7.30;99.90;;;;;;5052775;28;20204;-76
2021/04/03 01:22:25;;;;;;;11.37;9.60;;;7.30;99.90;;;;;;5052740;28;20182;-76
2021/04/03 01:24:57;;;;;;;14.30;9.60;;;7.10;99.90;;;;;;5011044;28;20187;-76
2021/04/03 01:27:24;;;;;;;10.57;9.30;;;7.00;99.90;;;;;;5052320;28;20201;-76
2021/04/03 01:29:52;;;;;;;11.47;9.27;;;6.90;99.90;;;;;;5053176;28;20216;-76
2021/04/03 01:32:41;;;;;;;13.40;10.17;;;6.90;99.90;;;;;;5052625;28;20202;-76
2021/04/03 01:35:09;;;;;;;11.40;9.37;;;6.90;99.90;;;;;;5029659;28;20237;-76
2021/04/03 01:37:46;;;;;;;11.00;9.63;;;6.80;99.90;;;;;;5034836;28;20174;-76
2021/04/03 01:40:16;;;;;;;12.30;9.93;;;6.80;99.90;;;;;;5049286;28;20243;-76
2021/04/03 01:42:45;;;;;;;10.87;9.60;;;6.90;99.90;;;;;;5052107;28;20274;-76
2021/04/03 01:45:12;;;;;;;10.73;9.63;;;6.90;99.90;;;;;;5052961;28;20525;-76
2021/04/03 01:47:40;;;;;;;12.33;10.00;;;6.80;99.90;;;;;;5052026;28;20529;-76
2021/04/03 01:50:07;;;;;;;10.93;8.67;;;6.60;99.90;;;;;;5052422;28;20185;-76
2021/04/03 01:52:33;;;;;;;11.57;9.23;;;6.60;99.90;;;;;;5052720;28;20224;-76
2021/04/03 01:55:06;;;;;;;11.03;9.90;;;6.60;99.90;;;;;;5043740;28;20178;-76
2021/04/03 01:57:33;;;;;;;11.90;8.87;;;6.50;99.90;;;;;;5036919;28;20177;-76
2021/04/03 02:00:00;;;;;;;11.60;9.40;;;6.50;99.90;;;;;;5052492;28;20198;-75
2021/04/03 02:02:27;;;;;;;11.40;8.93;;;6.30;99.90;;;;;;5052422;28;20189;-76
2021/04/03 02:04:54;;;;;;;10.90;9.73;;;6.30;99.90;;;;;;5052467;28;20189;-76
2021/04/03 02:07:22;;;;;;;12.67;10.07;;;6.30;99.90;;;;;;5052283;28;20269;-76
2021/04/03 02:09:53;;;;;;;10.77;8.67;;;6.10;99.90;;;;;;5052411;28;20268;-76
2021/04/03 02:12:20;;;;;;;13.13;9.47;;;6.00;99.90;;;;;;5054712;28;20233;-76
2021/04/03 02:14:49;;;;;;;10.97;9.33;;;5.80;99.90;;;;;;5055395;28;20184;-76
2021/04/03 02:17:19;;;;;;;12.97;10.20;;;5.70;99.90;;;;;;5055987;28;20236;-76
2021/04/03 02:19:44;;;;;;;12.00;10.10;;;5.60;99.90;;;;;;5055740;28;20204;-76
2021/04/03 02:22:14;;;;;;;11.13;9.50;;;5.50;99.90;;;;;;5055812;28;20206;-76
2021/04/03 02:24:41;;;;;;;11.97;10.37;;;5.40;99.90;;;;;;5054595;28;20188;-76
2021/04/03 02:27:07;;;;;;;14.13;9.30;;;5.60;99.90;;;;;;5055570;28;20186;-76
2021/04/03 02:29:33;;;;;;;11.90;9.50;;;5.50;99.90;;;;;;5055499;28;20233;-76
2021/04/03 02:31:59;;;;;;;13.13;9.60;;;5.50;99.90;;;;;;5055468;28;20197;-76
2021/04/03 02:34:25;;;;;;;11.30;9.50;;;5.40;99.90;;;;;;5054392;28;20272;-76
2021/04/03 02:36:51;;;;;;;14.33;10.00;;;5.50;99.90;;;;;;5055576;28;20176;-75
2021/04/03 02:39:16;;;;;;;12.80;10.37;;;5.40;99.90;;;;;;5055320;28;20310;-76
2021/04/03 02:41:44;;;;;;;12.70;10.63;;;5.30;99.90;;;;;;5055519;28;20185;-76
2021/04/03 02:44:21;;;;;;;12.67;10.43;;;5.20;99.90;;;;;;5055377;28;20267;-76
2021/04/03 02:47:11;;;;;;;17.10;11.03;;;5.10;99.90;;;;;;5055368;28;20184;-76
2021/04/03 02:49:53;;;;;;;18.03;10.67;;;5.10;99.90;;;;;;5055171;28;20259;-76
2021/04/03 02:52:20;;;;;;;13.83;10.23;;;5.10;99.90;;;;;;5055305;28;20202;-76
2021/04/03 02:54:48;;;;;;;13.63;9.90;;;5.00;99.90;;;;;;5045231;28;20211;-76
2021/04/03 02:57:14;;;;;;;16.03;10.07;;;5.00;99.90;;;;;;5055164;28;20591;-76
2021/04/03 02:59:46;;;;;;;16.70;10.10;;;5.10;99.90;;;;;;5055171;28;20245;-76
2021/04/03 03:02:16;;;;;;;15.77;10.10;;;5.10;99.90;;;;;;5055500;28;20250;-76
2021/04/03 03:04:44;;;;;;;12.87;10.53;;;5.00;99.90;;;;;;5054863;28;20172;-76
2021/04/03 03:07:11;;;;;;;13.13;10.90;;;5.10;99.90;;;;;;5055249;28;20581;-76
2021/04/03 03:09:38;;;;;;;13.03;9.90;;;4.90;99.90;;;;;;5040042;28;20584;-76
2021/04/03 03:12:05;;;;;;;17.30;11.20;;;5.00;99.90;;;;;;5054569;28;20670;-76
2021/04/03 03:14:31;;;;;;;13.50;10.67;;;5.00;99.90;;;;;;5054874;28;20185;-75
2021/04/03 03:16:58;;;;;;;14.27;11.00;;;4.90;99.90;;;;;;5054765;28;20204;-76
2021/04/03 03:19:24;;;;;;;15.33;11.17;;;4.80;99.90;;;;;;5054680;28;20685;-76
2021/04/03 03:21:51;;;;;;;11.57;10.37;;;4.80;99.90;;;;;;5050545;28;20195;-76
2021/04/03 03:24:17;;;;;;;13.57;10.77;;;4.80;99.90;;;;;;5042266;28;20183;-76
2021/04/03 03:26:43;;;;;;;15.23;10.87;;;4.90;99.90;;;;;;5054505;28;20275;-76
2021/04/03 03:29:11;;;;;;;13.03;10.80;;;4.70;99.90;;;;;;5053390;28;20236;-76
2021/04/03 03:31:41;;;;;;;18.73;11.40;;;4.70;99.90;;;;;;5041187;28;20208;-76
2021/04/03 03:34:09;;;;;;;15.40;11.33;;;4.70;99.90;;;;;;5033663;28;20204;-76
2021/04/03 03:36:39;;;;;;;17.00;10.80;;;4.60;99.90;;;;;;5029755;28;20217;-75
2021/04/03 03:39:06;;;;;;;15.47;11.47;;;4.60;99.90;;;;;;5032882;28;20248;-75
2021/04/03 03:41:34;;;;;;;15.37;11.17;;;4.60;99.90;;;;;;5034202;28;20189;-76
2021/04/03 03:44:04;;;;;;;15.97;12.23;;;4.60;99.90;;;;;;5035501;28;20191;-76
2021/04/03 03:46:29;;;;;;;14.07;11.30;;;4.60;99.90;;;;;;5032845;28;20658;-75
2021/04/03 03:48:55;;;;;;;16.13;11.73;;;5.00;99.90;;;;;;5032670;28;20270;-75
2021/04/03 03:51:21;;;;;;;16.70;12.17;;;4.40;99.90;;;;;;5032943;28;20210;-75
2021/04/03 03:53:46;;;;;;;16.23;12.53;;;4.30;99.90;;;;;;5031498;28;20181;-76
2021/04/03 03:56:14;;;;;;;16.50;12.07;;;4.30;99.90;;;;;;5034361;28;20179;-76
2021/04/03 03:58:41;;;;;;;17.93;13.17;;;4.30;99.90;;;;;;5061417;22;20198;-69
2021/04/03 04:01:07;;;;;;;20.00;12.20;;;4.30;99.90;;;;;;5049525;28;20184;-71
2021/04/03 04:03:33;;;;;;;18.07;12.50;;;4.20;99.90;;;;;;5051437;28;20282;-69
2021/04/03 04:05:59;;;;;;;20.07;13.47;;;4.20;99.90;;;;;;5051686;28;20186;-70
2021/04/03 04:08:25;;;;;;;20.20;13.07;;;4.30;99.90;;;;;;5052831;28;20778;-73
2021/04/03 04:10:52;;;;;;;20.57;13.30;;;4.20;99.90;;;;;;5050369;28;20171;-72
2021/04/03 04:13:19;;;;;;;20.50;13.53;;;4.20;99.90;;;;;;5053252;28;20184;-70
2021/04/03 04:15:45;;;;;;;17.10;12.73;;;4.20;99.90;;;;;;5053841;28;20532;-69
2021/04/03 04:18:10;;;;;;;21.70;13.00;;;4.30;99.90;;;;;;5053585;28;20184;-70
2021/04/03 04:20:36;;;;;;;18.33;12.07;;;4.40;99.90;;;;;;5053611;28;20195;-69
2021/04/03 04:23:02;;;;;;;19.33;13.43;;;4.60;99.90;;;;;;5052591;28;20177;-69
2021/04/03 04:25:28;;;;;;;16.80;12.80;;;4.70;99.90;;;;;;5036255;28;20170;-70
2021/04/03 04:27:55;;;;;;;18.47;12.80;;;4.70;99.90;;;;;;5053561;28;20177;-69
2021/04/03 04:30:21;;;;;;;17.97;12.13;;;4.80;99.90;;;;;;5053188;28;20282;-69
2021/04/03 04:32:47;;;;;;;18.47;13.20;;;4.90;99.90;;;;;;5053500;28;20201;-70
2021/04/03 04:35:14;;;;;;;15.73;12.03;;;5.00;99.90;;;;;;5051952;28;20208;-70
2021/04/03 04:37:42;;;;;;;20.47;12.30;;;5.10;99.90;;;;;;5052120;28;20552;-69
2021/04/03 04:40:11;;;;;;;18.97;13.00;;;5.10;99.90;;;;;;5051813;28;20572;-69
2021/04/03 04:42:41;;;;;;;16.70;11.63;;;5.00;99.90;;;;;;5053498;28;20189;-70
2021/04/03 04:45:09;;;;;;;20.90;13.33;;;4.90;99.90;;;;;;5053334;28;20237;-70
2021/04/03 04:47:34;;;;;;;15.33;12.20;;;4.80;99.90;;;;;;5053212;28;20708;-70
2021/04/03 04:50:00;;;;;;;18.93;13.40;;;4.90;99.90;;;;;;5053004;28;20204;-69
2021/04/03 04:52:27;;;;;;;18.00;12.10;;;4.90;99.90;;;;;;5053241;28;20269;-72
2021/04/03 04:54:53;;;;;;;18.80;13.33;;;4.90;99.90;;;;;;5053245;28;20560;-71
2021/04/03 04:57:19;;;;;;;17.00;12.03;;;4.90;99.90;;;;;;5053332;28;20595;-72
2021/04/03 04:59:44;;;;;;;18.37;12.40;;;4.80;99.90;;;;;;5052881;28;20212;-69
2021/04/03 05:02:10;;;;;;;19.50;12.37;;;4.90;99.90;;;;;;5053372;28;20543;-70
2021/04/03 05:04:36;;;;;;;16.57;12.40;;;4.80;99.90;;;;;;5052900;28;20256;-69
2021/04/03 05:07:03;;;;;;;21.10;13.10;;;4.80;99.90;;;;;;5053241;28;20182;-69
2021/04/03 05:09:29;;;;;;;19.20;13.30;;;4.70;99.90;;;;;;5052327;28;20211;-70
2021/04/03 05:11:55;;;;;;;20.53;12.63;;;4.80;99.90;;;;;;5051740;28;20237;-69
2021/04/03 05:14:21;;;;;;;19.67;13.27;;;4.90;99.90;;;;;;5053201;28;20187;-69
2021/04/03 05:16:47;;;;;;;17.40;12.13;;;4.90;99.90;;;;;;5052839;28;20245;-70
2021/04/03 05:19:13;;;;;;;15.70;12.37;;;4.90;99.90;;;;;;5056600;28;20211;-69
2021/04/03 05:21:39;;;;;;;16.23;12.23;;;5.10;99.90;;;;;;5052899;28;20547;-70
2021/04/03 05:24:05;;;;;;;17.93;11.93;;;5.20;99.90;;;;;;5052944;28;20188;-70
2021/04/03 05:26:31;;;;;;;16.77;12.33;;;5.30;99.90;;;;;;5051097;28;20183;-70
2021/04/03 05:28:56;;;;;;;17.10;12.20;;;5.30;99.90;;;;;;5052776;28;20210;-69
2021/04/03 05:31:22;;;;;;;17.87;12.20;;;5.30;99.90;;;;;;5051606;28;20285;-70
2021/04/03 05:33:48;;;;;;;19.50;11.63;;;5.30;99.90;;;;;;5052789;28;20192;-70
2021/04/03 05:36:14;;;;;;;15.30;11.77;;;5.40;99.90;;;;;;5051427;28;20263;-70
2021/04/03 05:38:41;;;;;;;18.60;11.47;;;5.50;99.90;;;;;;5052499;28;20179;-70
2021/04/03 05:41:07;;;;;;;11.80;10.60;;;5.40;99.90;;;;;;5052986;28;20573;-70
2021/04/03 05:43:35;;;;;;;15.63;11.87;;;5.40;99.90;;;;;;5052727;28;20646;-71
2021/04/03 05:46:02;;;;;;;13.10;10.47;;;5.40;99.90;;;;;;5053074;28;20176;-71
2021/04/03 05:48:28;;;;;;;15.10;11.73;;;5.40;99.90;;;;;;5055586;28;20663;-69
2021/04/03 05:50:55;;;;;;;14.10;10.50;;;5.40;99.90;;;;;;5056007;28;20176;-71
2021/04/03 05:53:22;;;;;;;15.80;10.17;;;5.50;99.90;;;;;;5056502;28;20177;-71
2021/04/03 05:55:58;;;;;;;15.03;10.20;;;5.50;99.90;;;;;;5056523;28;20170;-69
2021/04/03 05:58:24;;;;;;;14.70;9.77;;;5.50;99.90;;;;;;5056476;28;20589;-69
2021/04/03 06:00:54;;;;;;;14.10;9.87;;;5.60;99.90;;;;;;5056063;28;20705;-70
2021/04/03 06:03:20;;;;;;;15.17;8.80;;;5.60;99.90;;;;;;5055957;28;20204;-72
2021/04/03 06:05:50;;;;;;;11.30;8.67;;;5.60;99.90;;;;;;5056239;28;20185;-71
2021/04/03 06:08:16;;;;;;;9.43;8.43;;;5.60;99.90;;;;;;5054912;28;20636;-70
2021/04/03 06:11:02;;;;;;;9.57;8.00;;;5.60;99.90;;;;;;5055109;28;20196;-70
2021/04/03 06:13:28;;;;;;;10.47;7.77;;;5.50;99.90;;;;;;5056010;28;20182;-70
2021/04/03 06:15:54;;;;;;;12.07;8.80;;;5.60;99.90;;;;;;5055827;28;20262;-70
2021/04/03 06:18:21;;;;;;;11.43;7.77;;;5.70;99.90;;;;;;5055898;28;20675;-71
2021/04/03 06:20:47;;;;;;;9.53;7.70;;;5.80;99.90;;;;;;5056149;28;20184;-70
2021/04/03 06:23:13;;;;;;;12.40;8.43;;;5.90;99.90;;;;;;5055638;28;20199;-71
2021/04/03 06:25:58;;;;;;;8.33;6.80;;;5.90;99.90;;;;;;5054440;28;20208;-70
2021/04/03 06:28:29;;;;;;;8.83;7.67;;;6.10;99.90;;;;;;5042878;28;20186;-70
2021/04/03 06:31:16;;;;;;;8.83;6.70;;;6.10;99.90;;;;;;5036253;28;20209;-71
2021/04/03 06:33:43;;;;;;;9.87;7.03;;;6.00;99.90;;;;;;5038308;28;20174;-68
2021/04/03 06:36:13;;;;;;;7.10;6.33;;;6.00;99.90;;;;;;5034106;28;20648;-71
2021/04/03 06:38:41;;;;;;;7.30;6.60;;;6.00;99.90;;;;;;5035630;28;20584;-71
2021/04/03 06:41:19;;;;;;;11.67;6.73;;;6.10;99.90;;;;;;5035738;28;20189;-71
2021/04/03 06:44:09;;;;;;;9.30;7.40;;;6.00;99.90;;;;;;5035931;28;20256;-71
2021/04/03 06:46:36;;;;;;;11.27;6.77;;;6.00;99.90;;;;;;5034178;28;20178;-71
2021/04/03 06:49:03;;;;;;;9.33;6.00;;;6.00;99.90;;;;;;5034120;28;20203;-71
2021/04/03 06:51:30;;;;;;;11.03;6.43;;;5.90;99.90;;;;;;5037532;28;20207;-71
2021/04/03 06:53:57;;;;;;;7.47;5.70;;;6.00;99.90;;;;;;5048418;28;20181;-70
2021/04/03 06:56:25;;;;;;;9.63;6.53;;;6.10;99.90;;;;;;5055235;28;20270;-71
2021/04/03 06:58:59;;;;;;;8.97;6.60;;;6.10;99.90;;;;;;5054632;28;20209;-70
2021/04/03 07:01:26;;;;;;;9.77;6.00;;;6.10;99.90;;;;;;5055495;28;20202;-70
2021/04/03 07:03:56;;;;;;;7.10;6.10;;;6.10;99.90;;;;;;5054001;28;20207;-70
2021/04/03 07:06:23;;;;;;;7.47;6.03;;;6.10;99.90;;;;;;5053853;28;20173;-70
2021/04/03 07:08:50;;;;;;;6.80;6.10;;;6.20;99.90;;;;;;5055058;28;20193;-70
2021/04/03 07:11:16;;;;;;;13.63;6.00;;;6.30;99.90;;;;;;5054505;28;20202;-71
2021/04/03 07:13:44;;;;;;;6.77;5.67;;;6.30;99.90;;;;;;5054907;28;20710;-71
2021/04/03 07:16:10;;;;;;;8.03;6.00;;;6.30;99.90;;;;;;5054839;28;20182;-71
2021/04/03 07:18:38;;;;;;;8.80;6.47;;;6.20;99.90;;;;;;5054769;28;20173;-71
2021/04/03 07:21:06;;;;;;;9.83;7.03;;;6.30;99.90;;;;;;5052586;28;20204;-71
2021/04/03 07:23:34;;;;;;;9.03;5.97;;;6.30;99.90;;;;;;5051810;28;20191;-69
2021/04/03 07:26:01;;;;;;;5.97;5.47;;;6.40;99.90;;;;;;5053158;28;20260;-71
2021/04/03 07:28:40;;;;;;;8.10;6.00;;;6.40;99.90;;;;;;5053787;28;20182;-70
2021/04/03 07:31:07;;;;;;;10.47;6.23;;;6.40;99.90;;;;;;5050558;28;20205;-69
2021/04/03 07:33:33;;;;;;;7.60;5.30;;;6.30;99.90;;;;;;5054307;28;20223;-70
2021/04/03 07:36:07;;;;;;;10.47;6.17;;;6.30;99.90;;;;;;5053337;28;20557;-70
2021/04/03 07:38:37;;;;;;;8.10;5.57;;;6.50;99.90;;;;;;5054344;28;20174;-70
2021/04/03 07:41:15;;;;;;;7.97;5.77;;;6.50;99.90;;;;;;5054256;28;20204;-71
2021/04/03 07:43:42;;;;;;;8.37;5.87;;;6.50;99.90;;;;;;5054065;28;20233;-70
2021/04/03 07:46:09;;;;;;;12.90;6.63;;;6.50;99.90;;;;;;5053176;28;20615;-70
2021/04/03 07:48:38;;;;;;;9.47;5.97;;;6.70;99.90;;;;;;5053777;28;20624;-71
2021/04/03 07:51:25;;;;;;;6.47;5.50;;;6.80;99.90;;;;;;5053728;28;20185;-70
2021/04/03 07:53:58;;;;;;;7.97;5.30;;;7.10;99.90;;;;;;5040197;28;20217;-69
2021/04/03 07:56:46;;;;;;;7.37;4.87;;;7.00;99.90;;;;;;5054676;28;20174;-72
2021/04/03 07:59:11;;;;;;;5.90;4.70;;;7.10;99.90;;;;;;5039763;28;20220;-71
2021/04/03 08:01:38;;;;;;;6.43;5.20;;;7.20;99.90;;;;;;5053112;28;20187;-70
2021/04/03 08:04:05;;;;;;;7.07;4.60;;;7.30;99.90;;;;;;5054119;28;20675;-72
2021/04/03 08:06:35;;;;;;;6.47;4.50;;;7.40;99.90;;;;;;5054305;28;20180;-71
2021/04/03 08:09:16;;;;;;;5.60;3.87;;;7.30;99.90;;;;;;5053246;28;20212;-71
2021/04/03 08:11:46;;;;;;;3.73;3.43;;;7.30;99.90;;;;;;5052911;28;20255;-71
2021/04/03 08:14:13;;;;;;;4.97;3.73;;;7.10;99.90;;;;;;5053970;28;20174;-71
2021/04/03 08:16:40;;;;;;;6.33;3.57;;;7.10;99.90;;;;;;5053742;28;20170;-71
2021/04/03 08:19:07;;;;;;;3.03;2.73;;;7.20;99.90;;;;;;5053766;28;20197;-71
2021/04/03 08:21:47;;;;;;;3.97;3.00;;;7.20;99.90;;;;;;5053645;28;20181;-71
2021/04/03 08:24:14;;;;;;;8.10;3.37;;;7.10;99.90;;;;;;5052555;28;20174;-71
2021/04/03 08:26:41;;;;;;;5.37;2.77;;;7.30;99.90;;;;;;5053390;28;20264;-71
2021/04/03 08:29:18;;;;;;;3.83;3.43;;;7.40;99.90;;;;;;5051257;28;20209;-71
2021/04/03 08:31:47;;;;;;;3.87;3.53;;;7.30;99.90;;;;;;5051543;28;20284;-72
2021/04/03 08:34:13;;;;;;;4.77;3.20;;;7.50;99.90;;;;;;5053418;28;20174;-70
2021/04/03 08:36:42;;;;;;;4.60;3.53;;;7.50;99.90;;;;;;5053466;28;20717;-71
2021/04/03 08:39:11;;;;;;;5.80;4.97;;;7.50;99.90;;;;;;5052089;28;20190;-70
2021/04/03 08:41:39;;;;;;;8.70;5.80;;;7.40;99.90;;;;;;5054780;28;20182;-72
2021/04/03 08:44:19;;;;;;;7.73;5.00;;;7.40;99.90;;;;;;5052382;28;20174;-70
2021/04/03 08:46:47;;;;;;;5.33;4.23;;;7.50;99.90;;;;;;5053432;28;20651;-70
2021/04/03 08:49:25;;;;;;;5.70;4.33;;;7.60;99.90;;;;;;5053065;28;20202;-71
2021/04/03 08:51:51;;;;;;;7.60;3.63;;;7.60;99.90;;;;;;5051336;28;20693;-70
2021/04/03 08:54:17;;;;;;;6.53;3.60;;;7.60;99.90;;;;;;5051459;28;20625;-71
2021/04/03 08:56:43;;;;;;;5.07;4.10;;;7.60;99.90;;;;;;5053029;28;20174;-70
2021/04/03 08:59:19;;;;;;;4.83;4.20;;;7.60;99.90;;;;;;5050786;28;20669;-71
2021/04/03 09:01:50;;;;;;;6.03;3.37;;;7.50;99.90;;;;;;5052470;28;20182;-70
2021/04/03 09:04:18;;;;;;;4.00;2.90;;;7.40;99.90;;;;;;5052611;28;20174;-71
2021/04/03 09:06:45;;;;;;;3.50;3.20;;;7.40;99.90;;;;;;5052957;28;20292;-71
2021/04/03 09:09:12;;;;;;;6.40;3.00;;;7.30;99.90;;;;;;5053044;28;20197;-70
2021/04/03 09:11:38;;;;;;;3.57;2.80;;;7.30;99.90;;;;;;5053141;28;20348;-70
2021/04/03 09:14:04;;;;;;;5.93;2.80;;;7.30;99.90;;;;;;5053272;28;20177;-71
2021/04/03 09:16:38;;;;;;;5.73;3.63;;;7.30;99.90;;;;;;5053318;28;20175;-70
2021/04/03 09:19:05;;;;;;;5.90;3.37;;;7.30;99.90;;;;;;5053012;28;20691;-70
2021/04/03 09:21:31;;;;;;;4.70;3.43;;;7.30;99.90;;;;;;5055025;28;20531;-71
2021/04/03 09:23:57;;;;;;;4.07;3.23;;;7.30;99.90;;;;;;5036592;28;20174;-71
2021/04/03 09:26:31;;;;;;;3.37;3.07;;;7.40;99.90;;;;;;5054754;28;20184;-71
2021/04/03 09:29:05;;;;;;;5.10;2.97;;;7.40;99.90;;;;;;5056925;28;20185;-70
2021/04/03 09:31:42;;;;;;;4.07;2.83;;;7.60;99.90;;;;;;5055541;28;20280;-70
2021/04/03 09:34:08;;;;;;;3.13;2.67;;;7.60;99.90;;;;;;5055639;28;20257;-70
2021/04/03 09:36:50;;;;;;;5.63;2.73;;;7.60;99.90;;;;;;5055804;28;20205;-70
2021/04/03 09:39:18;;;;;;;5.50;3.40;;;7.60;99.90;;;;;;5056648;28;20672;-70
2021/04/03 09:41:49;;;;;;;5.23;3.30;;;7.60;99.90;;;;;;5056968;28;20183;-71
2021/04/03 09:44:15;;;;;;;4.40;2.80;;;7.50;99.90;;;;;;5055539;28;20181;-71
2021/04/03 09:46:41;;;;;;;3.57;3.17;;;7.50;99.90;;;;;;5057029;28;20601;-71
2021/04/03 09:49:08;;;;;;;3.53;3.20;;;7.60;99.90;;;;;;5056213;28;20233;-71
2021/04/03 09:51:34;;;;;;;4.10;3.13;;;7.60;99.90;;;;;;5053925;28;20224;-72
2021/04/03 09:54:01;;;;;;;5.47;3.03;;;7.70;99.90;;;;;;5053911;28;20179;-71
2021/04/03 09:56:27;;;;;;;3.53;2.93;;;7.70;99.90;;;;;;5054283;28;20262;-72
2021/04/03 09:58:53;;;;;;;4.60;3.10;;;7.80;99.90;;;;;;5054979;28;20293;-72
2021/04/03 10:01:20;;;;;;;4.53;3.30;;;7.80;99.90;;;;;;5069544;22;20231;-73
2021/04/03 10:03:45;;;;;;;3.23;2.73;;;7.80;99.90;;;;;;5050239;28;20528;-73
2021/04/03 10:06:11;;;;;;;3.80;3.30;;;7.90;99.90;;;;;;5038628;28;20182;-73
2021/04/03 10:08:37;;;;;;;4.03;3.27;;;7.90;99.90;;;;;;5036104;28;20257;-73
2021/04/03 10:11:02;;;;;;;4.13;3.30;;;8.10;99.90;;;;;;5036590;28;20259;-74
2021/04/03 10:13:28;;;;;;;3.83;3.10;;;8.00;99.90;;;;;;5038765;28;20174;-71
2021/04/03 10:15:54;;;;;;;3.57;2.87;;;7.90;99.90;;;;;;5035425;28;20197;-73
2021/04/03 10:18:20;;;;;;;3.03;2.70;;;8.10;99.90;;;;;;5044963;28;20642;-74
2021/04/03 10:20:45;;;;;;;4.30;2.67;;;8.10;99.90;;;;;;5055087;28;20248;-73
2021/04/03 10:23:11;;;;;;;3.17;2.77;;;8.10;99.40;;;;;;5054541;28;20178;-74
2021/04/03 10:25:37;;;;;;;3.43;2.13;;;8.20;99.90;;;;;;5056105;28;20189;-74
2021/04/03 10:28:03;;;;;;;2.37;2.17;;;8.20;99.30;;;;;;5048678;28;20182;-74
2021/04/03 10:30:29;;;;;;;3.80;2.60;;;8.10;99.10;;;;;;5055056;28;20240;-73
2021/04/03 10:32:55;;;;;;;3.17;2.77;;;8.00;98.90;;;;;;5054866;28;20204;-73
2021/04/03 10:35:21;;;;;;;3.80;2.50;;;7.90;99.20;;;;;;5054338;28;20221;-73
2021/04/03 10:37:46;;;;;;;3.50;2.70;;;8.00;99.90;;;;;;5050334;28;20205;-73
2021/04/03 10:40:13;;;;;;;4.23;2.37;;;8.10;99.90;;;;;;5038117;28;20212;-73
2021/04/03 10:42:40;;;;;;;2.97;2.67;;;8.10;99.90;;;;;;5046117;28;20630;-73
2021/04/03 10:45:07;;;;;;;5.30;3.00;;;8.20;99.90;;;;;;5039146;28;20234;-73
2021/04/03 10:47:32;;;;;;;2.60;2.40;;;8.20;99.90;;;;;;5037783;28;20184;-73
2021/04/03 10:49:58;;;;;;;3.83;2.50;;;8.20;99.60;;;;;;5047117;28;20187;-73
2021/04/03 10:52:23;;;;;;;4.40;2.83;;;8.30;99.60;;;;;;5055211;28;20227;-73
2021/04/03 10:54:49;;;;;;;4.03;2.50;;;8.20;99.90;;;;;;5055815;28;20254;-74
2021/04/03 10:57:17;;;;;;;4.37;2.60;;;8.40;99.70;;;;;;5055088;28;20258;-73
2021/04/03 10:59:42;;;;;;;2.33;2.13;;;8.50;99.80;;;;;;5052162;28;20264;-76
2021/04/03 11:02:08;;;;;;;3.87;2.30;;;8.60;99.20;;;;;;5054705;28;20357;-74
2021/04/03 11:04:34;;;;;;;3.20;2.33;;;8.50;99.30;;;;;;5053825;28;20182;-75
2021/04/03 11:07:01;;;;;;;3.53;3.00;;;8.50;98.30;;;;;;5056212;28;20172;-75
2021/04/03 11:09:27;;;;;;;4.33;2.40;;;8.50;97.90;;;;;;5055462;28;20304;-75
2021/04/03 11:11:53;;;;;;;3.30;2.33;;;8.50;97.10;;;;;;5053341;28;20648;-75
2021/04/03 11:14:18;;;;;;;3.77;2.60;;;8.60;98.60;;;;;;5050926;28;20194;-74
2021/04/03 11:16:44;;;;;;;2.80;2.60;;;8.60;97.50;;;;;;5040364;28;20176;-75
2021/04/03 11:19:10;;;;;;;3.50;3.20;;;8.70;97.90;;;;;;5052254;28;20610;-75
2021/04/03 11:21:36;;;;;;;2.83;2.60;;;8.70;97.50;;;;;;5037906;28;20694;-74
2021/04/03 11:24:01;;;;;;;3.03;2.50;;;8.50;96.80;;;;;;5044505;28;20243;-74
2021/04/03 11:26:27;;;;;;;3.57;3.00;;;8.50;97.40;;;;;;5047276;28;20179;-75
2021/04/03 11:28:53;;;;;;;3.80;2.20;;;8.50;97.70;;;;;;5054437;28;20186;-75
2021/04/03 11:31:18;;;;;;;3.83;2.60;;;8.40;96.70;;;;;;5053161;28;20199;-75
2021/04/03 11:33:44;;;;;;;3.03;2.57;;;8.60;97.30;;;;;;5053042;28;20206;-75
2021/04/03 11:36:11;;;;;;;4.50;2.70;;;8.70;96.60;;;;;;5042912;28;20721;-75
2021/04/03 11:38:36;;;;;;;2.40;2.20;;;8.90;97.30;;;;;;5054463;28;20710;-75
2021/04/03 11:41:02;;;;;;;2.80;2.20;;;9.10;96.40;;;;;;5045849;28;20273;-75
2021/04/03 11:43:28;;;;;;;2.93;2.63;;;9.10;96.20;;;;;;5052176;28;20187;-75
2021/04/03 11:45:54;;;;;;;3.07;2.40;;;9.00;96.00;;;;;;5040479;28;20187;-75
2021/04/03 11:48:19;;;;;;;3.27;2.30;;;9.10;96.10;;;;;;5054358;28;20599;-74
2021/04/03 11:50:46;;;;;;;3.43;2.57;;;9.10;95.00;;;;;;5045330;28;20229;-76
2021/04/03 11:53:13;;;;;;;3.27;2.53;;;8.90;95.10;;;;;;5054195;28;20192;-76
2021/04/03 11:55:39;;;;;;;3.00;2.70;;;8.80;95.60;;;;;;5053979;28;20178;-75
2021/04/03 11:58:05;;;;;;;2.53;2.33;;;9.00;95.30;;;;;;5054161;28;20177;-75
2021/04/03 12:00:30;;;;;;;2.43;2.23;;;9.20;95.90;;;;;;5052694;28;20176;-75
2021/04/03 12:02:56;;;;;;;6.33;2.70;;;9.20;96.00;;;;;;5052586;28;20208;-76
2021/04/03 12:05:23;;;;;;;3.57;2.73;;;9.30;95.60;;;;;;5054185;28;20181;-76
2021/04/03 12:07:49;;;;;;;3.77;2.80;;;9.20;95.40;;;;;;5052759;28;20602;-75
2021/04/03 12:10:16;;;;;;;2.90;2.70;;;9.10;95.20;;;;;;5040002;28;20178;-74
2021/04/03 12:12:43;;;;;;;4.17;2.57;;;9.00;95.10;;;;;;5052302;28;20572;-75
2021/04/03 12:15:11;;;;;;;2.97;2.33;;;8.90;95.70;;;;;;5053660;28;20172;-76
2021/04/03 12:17:37;;;;;;;2.60;2.40;;;8.80;95.60;;;;;;5053473;28;20176;-77
2021/04/03 12:20:05;;;;;;;2.40;2.20;;;8.80;96.20;;;;;;5053452;28;20186;-74
2021/04/03 12:22:31;;;;;;;3.33;2.47;;;8.90;96.60;;;;;;5053491;28;20243;-75
2021/04/03 12:24:57;;;;;;;5.00;3.23;;;8.90;96.20;;;;;;5052270;28;20198;-76
2021/04/03 12:27:22;;;;;;;2.63;2.40;;;8.80;96.50;;;;;;5053633;28;20709;-74
2021/04/03 12:29:48;;;;;;;3.43;2.37;;;8.90;96.60;;;;;;5053609;28;20186;-74
2021/04/03 12:32:14;;;;;;;3.80;2.90;;;8.70;96.40;;;;;;5053304;28;20204;-75
2021/04/03 12:34:39;;;;;;;3.70;2.60;;;8.70;96.50;;;;;;5053292;28;20552;-75
2021/04/03 12:37:05;;;;;;;6.30;3.07;;;8.70;96.70;;;;;;5052514;28;20222;-75
2021/04/03 12:39:31;;;;;;;2.40;2.20;;;8.60;96.50;;;;;;5052025;28;20181;-75
2021/04/03 12:41:56;;;;;;;4.00;2.67;;;8.60;96.90;;;;;;5051747;28;20208;-76
2021/04/03 12:44:22;;;;;;;2.67;2.33;;;8.80;96.30;;;;;;5053332;28;20178;-76
2021/04/03 12:46:48;;;;;;;3.33;2.47;;;8.90;95.90;;;;;;5053276;28;20213;-76
2021/04/03 12:49:14;;;;;;;2.40;2.00;;;9.00;95.60;;;;;;5053211;28;20590;-77
2021/04/03 12:51:40;;;;;;;2.73;2.53;;;9.20;95.60;;;;;;5051781;28;20250;-76
2021/04/03 12:54:05;;;;;;;4.23;2.80;;;9.20;95.80;;;;;;5053148;28;20178;-76